Time;durP1;ratioP1;P1;durP2;ratioP2;P2;SDS_P1;SDS_P2;PMS_P1;PMS_P2;Temp;Humidity;BMP_temperature;BMP_pressure;BME280_temperature;BME280_humidity;BME280_pressure;Samples;Min_cycle;Max_cycle;Signal;HPM_P1;HPM_P2
2022/07/31 00:00:33;;;;;;;29.30;26.40;;;;;;;17.67;100.00;101724.09;5052196;28;20458;-41
2022/07/31 00:03:01;;;;;;;25.70;23.30;;;;;;;17.67;100.00;101715.97;5052176;28;20435;-42
2022/07/31 00:05:30;;;;;;;27.93;25.27;;;;;;;17.68;100.00;101704.16;5052475;28;20480;-45
2022/07/31 00:07:58;;;;;;;33.67;27.90;;;;;;;17.68;100.00;101704.16;5051945;28;20455;-42
2022/07/31 00:10:26;;;;;;;28.90;25.60;;;;;;;17.68;100.00;101717.66;5052465;28;20824;-45
2022/07/31 00:12:53;;;;;;;31.23;27.90;;;;;;;17.69;100.00;101714.72;5051667;28;20471;-41
2022/07/31 00:15:21;;;;;;;28.07;25.10;;;;;;;17.69;100.00;101721.97;5052389;28;20432;-45
2022/07/31 00:17:49;;;;;;;33.73;26.47;;;;;;;17.67;100.00;101713.28;5051901;28;20911;-44
2022/07/31 00:20:17;;;;;;;31.00;28.07;;;;;;;17.66;100.00;101714.31;5052097;28;20828;-45
2022/07/31 00:22:48;;;;;;;29.03;26.10;;;;;;;17.63;100.00;101694.00;5051830;28;20427;-45
2022/07/31 00:25:16;;;;;;;28.20;25.40;;;;;;;17.63;100.00;101703.97;5052257;28;20437;-42
2022/07/31 00:27:44;;;;;;;32.83;29.20;;;;;;;17.61;100.00;101706.06;5051339;28;20431;-42
2022/07/31 00:30:12;;;;;;;32.10;28.80;;;;;;;17.58;100.00;101704.66;5052100;28;20429;-42
2022/07/31 00:32:40;;;;;;;28.23;25.53;;;;;;;17.58;100.00;101710.03;5051341;28;20479;-44
2022/07/31 00:35:09;;;;;;;34.30;30.70;;;;;;;17.56;100.00;101703.22;5051559;28;20997;-46
2022/07/31 00:37:39;;;;;;;28.43;25.73;;;;;;;17.56;100.00;101700.53;5051521;28;20427;-41
2022/07/31 00:40:12;;;;;;;27.57;24.83;;;;;;;17.54;100.00;101695.31;5051987;28;20450;-40
2022/07/31 00:42:40;;;;;;;31.77;28.73;;;;;;;17.49;100.00;101702.41;5051770;28;20510;-41
2022/07/31 00:45:09;;;;;;;34.03;30.53;;;;;;;17.48;100.00;101698.88;5051862;28;20441;-44
2022/07/31 00:47:40;;;;;;;32.73;27.00;;;;;;;17.47;100.00;101701.81;5051493;28;20431;-46
2022/07/31 00:50:08;;;;;;;31.63;28.33;;;;;;;17.45;100.00;101704.69;5051664;28;20430;-44
2022/07/31 00:52:36;;;;;;;25.70;23.50;;;;;;;17.46;100.00;101700.97;5051166;28;20450;-43
2022/07/31 00:55:05;;;;;;;28.93;26.23;;;;;;;17.45;100.00;101693.09;5051503;28;20435;-47
2022/07/31 00:57:34;;;;;;;25.43;23.03;;;;;;;17.46;100.00;101694.75;5051655;28;20441;-43
2022/07/31 01:00:01;;;;;;;24.97;22.70;;;;;;;17.45;100.00;101685.00;5051323;28;20974;-44
2022/07/31 01:02:30;;;;;;;23.27;20.97;;;;;;;17.45;100.00;101683.13;5051277;28;20462;-45
2022/07/31 01:04:57;;;;;;;27.50;24.63;;;;;;;17.45;100.00;101688.53;5051440;28;20435;-45
2022/07/31 01:07:25;;;;;;;28.00;25.27;;;;;;;17.45;100.00;101683.13;5051682;28;20446;-44
2022/07/31 01:09:54;;;;;;;22.80;20.60;;;;;;;17.46;100.00;101678.56;5050970;28;20848;-41
2022/07/31 01:12:27;;;;;;;21.67;19.47;;;;;;;17.46;100.00;101679.41;5051172;28;20451;-44
2022/07/31 01:14:59;;;;;;;22.63;20.53;;;;;;;17.46;100.00;101668.59;5051369;28;20471;-44
2022/07/31 01:17:30;;;;;;;24.60;21.80;;;;;;;17.46;100.00;101667.78;5051320;28;20423;-45
2022/07/31 01:19:59;;;;;;;20.83;18.67;;;;;;;17.48;100.00;101665.69;5050975;28;20467;-43
2022/07/31 01:22:51;;;;;;;22.07;19.97;;;;;;;17.48;100.00;101665.69;5051219;28;20450;-46
2022/07/31 01:25:32;;;;;;;25.00;22.30;;;;;;;17.47;100.00;101670.25;5051392;28;20439;-45
2022/07/31 01:28:06;;;;;;;20.73;18.53;;;;;;;17.46;100.00;101655.13;5050940;28;20463;-45
2022/07/31 01:30:42;;;;;;;19.57;17.73;;;;;;;17.48;100.00;101671.06;5051372;28;20462;-43
2022/07/31 01:33:15;;;;;;;21.13;19.00;;;;;;;17.48;100.00;101669.19;5050930;28;20435;-43
2022/07/31 01:35:48;;;;;;;19.03;17.23;;;;;;;17.50;100.00;101669.81;5051366;28;20430;-45
2022/07/31 01:38:22;;;;;;;26.10;20.90;;;;;;;17.51;100.00;101665.25;5050592;28;20471;-44
2022/07/31 01:40:57;;;;;;;27.53;24.83;;;;;;;17.49;100.00;101670.03;5051179;28;20473;-41
2022/07/31 01:43:28;;;;;;;23.33;20.23;;;;;;;17.46;100.00;101662.38;5052353;28;20426;-45
2022/07/31 01:46:00;;;;;;;31.23;24.73;;;;;;;17.44;100.00;101667.19;5055157;28;20801;-44
2022/07/31 01:48:31;;;;;;;25.33;22.87;;;;;;;17.41;100.00;101670.31;5054524;28;20462;-44
2022/07/31 01:51:01;;;;;;;25.83;23.23;;;;;;;17.38;100.00;101668.84;5054685;28;20451;-42
2022/07/31 01:53:30;;;;;;;21.43;19.30;;;;;;;17.39;100.00;101667.00;5054854;28;20467;-44
2022/07/31 01:55:58;;;;;;;26.07;22.70;;;;;;;17.39;100.00;101669.69;5054705;28;20433;-43
2022/07/31 01:58:34;;;;;;;22.60;20.30;;;;;;;17.37;100.00;101667.22;5054337;28;20493;-44
2022/07/31 02:01:05;;;;;;;18.77;17.07;;;;;;;17.37;100.00;101661.00;5054817;28;20443;-44
2022/07/31 02:03:34;;;;;;;22.10;19.90;;;;;;;17.39;100.00;101661.59;5054330;28;20485;-45
2022/07/31 02:06:14;;;;;;;25.10;22.47;;;;;;;17.39;100.00;101653.50;5054618;28;20442;-44
2022/07/31 02:08:44;;;;;;;26.13;22.83;;;;;;;17.41;100.00;101667.63;5054177;28;20546;-46
2022/07/31 02:11:13;;;;;;;22.53;20.30;;;;;;;17.42;100.00;101669.25;5054463;28;20820;-44
2022/07/31 02:13:42;;;;;;;23.47;20.97;;;;;;;17.43;100.00;101670.91;5054082;28;20475;-44
2022/07/31 02:16:11;;;;;;;20.73;18.53;;;;;;;17.44;100.00;101659.88;5054647;28;20477;-44
2022/07/31 02:18:40;;;;;;;24.30;22.10;;;;;;;17.45;100.00;101658.03;5053823;28;21026;-41
2022/07/31 02:21:08;;;;;;;23.33;21.03;;;;;;;17.44;100.00;101659.09;5054159;28;20975;-44
2022/07/31 02:23:36;;;;;;;26.93;24.07;;;;;;;17.44;100.00;101659.88;5054188;28;20545;-43
2022/07/31 02:26:05;;;;;;;23.10;20.70;;;;;;;17.44;100.00;101659.88;5054116;28;20464;-41
2022/07/31 02:28:37;;;;;;;24.33;22.10;;;;;;;17.44;100.00;101656.41;5053719;28;20466;-44
2022/07/31 02:31:10;;;;;;;22.60;18.80;;;;;;;17.43;100.00;101654.72;5054076;28;20459;-43
2022/07/31 02:33:41;;;;;;;23.77;20.37;;;;;;;17.41;100.00;101659.53;5053678;28;20765;-43
2022/07/31 02:36:11;;;;;;;30.63;25.13;;;;;;;17.41;100.00;101660.34;5053911;28;20781;-42
2022/07/31 02:38:40;;;;;;;23.30;21.10;;;;;;;17.41;100.00;101659.53;5053312;28;20469;-43
2022/07/31 02:41:10;;;;;;;27.50;24.50;;;;;;;17.41;100.00;101656.84;5054261;28;20447;-44
2022/07/31 02:43:39;;;;;;;22.90;20.47;;;;;;;17.42;100.00;101656.59;5053850;28;20449;-42
2022/07/31 02:46:08;;;;;;;25.40;23.00;;;;;;;17.43;100.00;101650.16;5061111;23;20489;-44
2022/07/31 02:48:36;;;;;;;24.27;21.43;;;;;;;17.46;100.00;101651.59;5013500;28;20483;-44
2022/07/31 02:51:06;;;;;;;22.17;20.07;;;;;;;17.46;100.00;101644.34;5014053;28;20484;-46
2022/07/31 02:53:36;;;;;;;24.60;22.33;;;;;;;17.47;100.00;101650.56;5013630;28;20444;-45
2022/07/31 02:56:08;;;;;;;26.77;24.10;;;;;;;17.48;100.00;101649.50;5014171;28;20448;-47
2022/07/31 02:58:40;;;;;;;24.10;21.57;;;;;;;17.48;100.00;101644.09;5013569;28;20488;-48
2022/07/31 03:01:09;;;;;;;23.50;21.43;;;;;;;17.48;100.00;101650.31;5014058;28;20930;-46
2022/07/31 03:03:37;;;;;;;24.13;21.63;;;;;;;17.48;100.00;101641.41;5013540;28;20930;-46
2022/07/31 03:06:06;;;;;;;21.83;19.80;;;;;;;17.50;100.00;101647.44;5013600;28;20806;-44
2022/07/31 03:08:34;;;;;;;25.83;23.20;;;;;;;17.48;100.00;101644.94;5013134;28;20527;-49
2022/07/31 03:11:02;;;;;;;22.50;20.40;;;;;;;17.47;100.00;101637.88;5013584;28;20437;-44
2022/07/31 03:13:31;;;;;;;28.23;24.10;;;;;;;17.47;100.00;101639.78;5013320;28;20960;-49
2022/07/31 03:16:00;;;;;;;31.00;24.87;;;;;;;17.45;100.00;101633.75;5013409;28;20484;-44
2022/07/31 03:18:29;;;;;;;22.57;20.33;;;;;;;17.43;100.00;101633.16;5013243;28;20476;-50
2022/07/31 03:20:57;;;;;;;22.67;20.53;;;;;;;17.43;100.00;101634.00;5013633;28;20436;-44
2022/07/31 03:23:34;;;;;;;21.23;18.90;;;;;;;17.41;100.00;101625.28;5013313;28;20802;-46
2022/07/31 03:26:02;;;;;;;28.93;25.87;;;;;;;17.41;100.00;101630.66;5013366;28;20451;-48
2022/07/31 03:28:30;;;;;;;24.40;21.90;;;;;;;17.43;100.00;101635.84;5012856;28;20473;-44
2022/07/31 03:30:58;;;;;;;22.93;20.53;;;;;;;17.43;100.00;101627.78;5013190;28;20445;-44
2022/07/31 03:33:25;;;;;;;21.63;18.93;;;;;;;17.43;100.00;101633.16;5013259;28;20433;-46
2022/07/31 03:35:53;;;;;;;25.00;22.40;;;;;;;17.44;100.00;101626.72;5013122;28;20851;-44
2022/07/31 03:38:21;;;;;;;22.03;19.90;;;;;;;17.43;100.00;101631.28;5012836;28;20461;-45
2022/07/31 03:41:10;;;;;;;26.67;23.80;;;;;;;17.41;100.00;101621.78;5013369;28;20783;-49
2022/07/31 03:43:38;;;;;;;26.87;24.07;;;;;;;17.40;100.00;101630.91;5013326;28;20807;-44
2022/07/31 03:46:16;;;;;;;25.00;22.40;;;;;;;17.39;100.00;101626.53;5013087;28;20470;-44
2022/07/31 03:48:44;;;;;;;25.53;22.50;;;;;;;17.34;100.00;101624.53;5012696;28;20531;-46
2022/07/31 03:51:12;;;;;;;32.67;25.37;;;;;;;17.31;100.00;101630.34;5012957;28;20436;-45
2022/07/31 03:53:41;;;;;;;29.10;24.40;;;;;;;17.33;100.00;101632.81;5012649;28;20441;-45
2022/07/31 03:56:11;;;;;;;26.33;23.63;;;;;;;17.36;100.00;101630.50;5012927;28;20476;-46
2022/07/31 03:58:39;;;;;;;26.87;24.07;;;;;;;17.39;100.00;101631.94;5012703;28;21101;-45
2022/07/31 04:01:08;;;;;;;30.57;24.00;;;;;;;17.41;100.00;101635.25;5012935;28;20791;-50
2022/07/31 04:03:39;;;;;;;23.20;21.10;;;;;;;17.48;100.00;101644.09;5012673;28;20448;-46
2022/07/31 04:06:06;;;;;;;23.93;21.43;;;;;;;17.56;100.00;101636.59;5011941;28;20544;-45
2022/07/31 04:08:34;;;;;;;23.37;20.97;;;;;;;17.67;100.00;101641.28;5012179;28;20469;-44
2022/07/31 04:11:02;;;;;;;22.00;19.77;;;;;;;17.75;100.00;101640.16;5012625;28;20930;-47
2022/07/31 04:13:31;;;;;;;23.07;20.77;;;;;;;17.86;100.00;101646.72;5012740;28;20432;-48
2022/07/31 04:15:58;;;;;;;22.87;20.60;;;;;;;17.94;100.00;101652.66;5012539;28;20481;-44
2022/07/31 04:18:26;;;;;;;29.73;25.50;;;;;;;18.02;100.00;101646.13;5012081;28;20475;-47
2022/07/31 04:20:53;;;;;;;26.30;23.40;;;;;;;18.07;100.00;101635.50;5012372;28;20441;-44
2022/07/31 04:23:21;;;;;;;22.20;20.10;;;;;;;18.11;100.00;101640.22;5012153;28;20960;-44
2022/07/31 04:25:59;;;;;;;25.00;22.50;;;;;;;18.15;100.00;101641.44;5012524;28;20452;-48
2022/07/31 04:28:26;;;;;;;29.73;26.23;;;;;;;18.21;100.00;101639.69;5012115;28;20460;-45
2022/07/31 04:30:55;;;;;;;27.70;24.90;;;;;;;18.26;100.00;101642.53;5012338;28;20440;-47
2022/07/31 04:33:23;;;;;;;25.10;22.43;;;;;;;18.28;100.00;101640.44;5011870;28;20433;-46
2022/07/31 04:35:51;;;;;;;26.87;24.07;;;;;;;18.33;100.00;101637.06;5012050;28;20476;-44
2022/07/31 04:38:20;;;;;;;24.90;22.57;;;;;;;18.34;100.00;101638.72;4992371;28;20469;-47
2022/07/31 04:40:48;;;;;;;24.87;22.37;;;;;;;18.38;100.00;101651.53;4992591;28;20442;-44
2022/07/31 04:43:16;;;;;;;23.90;21.63;;;;;;;18.39;100.00;101644.25;4992405;28;20802;-44
2022/07/31 04:45:44;;;;;;;24.33;21.70;;;;;;;18.45;100.00;101649.59;4992379;28;20457;-46
2022/07/31 04:48:13;;;;;;;23.67;21.27;;;;;;;18.51;100.00;101640.63;4992184;28;20465;-47
2022/07/31 04:50:41;;;;;;;27.13;23.60;;;;;;;18.58;100.00;101637.81;4992615;28;20433;-45
2022/07/31 04:53:09;;;;;;;22.73;20.63;;;;;;;18.68;100.00;101641.63;4992356;28;20459;-47
2022/07/31 04:55:36;;;;;;;23.87;21.57;;;;;;;18.76;100.00;101648.59;4992411;28;20481;-44
2022/07/31 04:58:04;;;;;;;23.20;21.03;;;;;;;19.42;100.00;101639.53;4991953;28;20469;-46
2022/07/31 05:00:31;;;;;;;21.50;19.33;;;;;;;19.48;100.00;101644.00;4992292;28;20440;-44
2022/07/31 05:02:59;;;;;;;25.80;23.40;;;;;;;19.52;97.83;101643.31;4992299;28;20443;-46
2022/07/31 05:05:28;;;;;;;20.80;18.60;;;;;;;19.60;96.34;101637.56;4992309;28;20433;-48
2022/07/31 05:07:55;;;;;;;21.87;19.53;;;;;;;19.71;96.37;101635.94;4992099;28;20462;-47
2022/07/31 05:13:05;;;;;;;22.63;20.33;;;;;;;19.95;94.64;101642.16;4980264;28;20446;-44
2022/07/31 05:15:32;;;;;;;19.80;17.80;;;;;;;20.10;94.74;101634.38;4992098;28;21094;-45
2022/07/31 05:18:00;;;;;;;21.70;19.77;;;;;;;20.34;93.70;101635.97;4994204;28;20815;-44
2022/07/31 05:20:29;;;;;;;18.07;16.17;;;;;;;20.68;94.14;101636.94;4996095;28;20942;-45
2022/07/31 05:22:56;;;;;;;20.07;18.10;;;;;;;21.63;93.19;101628.88;4996045;28;20433;-47
2022/07/31 05:25:24;;;;;;;15.70;14.30;;;;;;;22.57;89.77;101630.47;4995875;28;20429;-45
2022/07/31 05:27:51;;;;;;;15.57;13.13;;;;;;;23.79;81.01;101618.81;4995732;28;20429;-48
2022/07/31 05:30:21;;;;;;;14.13;12.83;;;;;;;23.94;72.97;101613.47;4996156;28;20865;-47
2022/07/31 05:32:57;;;;;;;16.40;14.80;;;;;;;23.67;69.66;101619.84;4995955;28;20432;-44
2022/07/31 05:35:24;;;;;;;16.07;14.23;;;;;;;23.49;70.37;101627.59;5015358;28;20500;-44
2022/07/31 05:37:54;;;;;;;15.67;14.27;;;;;;;23.58;73.71;101626.03;5014815;28;20433;-49
2022/07/31 05:40:22;;;;;;;12.13;11.13;;;;;;;24.36;68.89;101621.59;5015612;28;20855;-49
2022/07/31 05:42:49;;;;;;;12.73;11.57;;;;;;;25.05;68.00;101608.44;5015294;28;20432;-44
2022/07/31 05:45:17;;;;;;;12.83;10.10;;;;;;;25.57;66.24;101608.97;5015158;28;20432;-45
2022/07/31 05:47:45;;;;;;;11.70;10.53;;;;;;;25.99;63.85;101608.63;5014701;28;20948;-45
2022/07/31 05:50:13;;;;;;;11.90;10.70;;;;;;;27.04;62.65;101606.47;5015242;28;20785;-45
2022/07/31 05:52:41;;;;;;;9.97;9.03;;;;;;;27.77;56.72;101609.16;5014851;28;20432;-50
2022/07/31 05:55:10;;;;;;;11.80;10.90;;;;;;;28.55;56.99;101595.88;5015080;28;20938;-46
2022/07/31 05:57:38;;;;;;;8.90;8.10;;;;;;;29.47;56.05;101607.91;5014657;28;20476;-45
2022/07/31 06:00:06;;;;;;;9.57;8.87;;;;;;;30.18;55.18;101606.56;5015084;28;20455;-45
2022/07/31 06:02:35;;;;;;;10.00;9.13;;;;;;;29.39;49.47;101594.06;5015086;28;20436;-44
2022/07/31 06:05:04;;;;;;;7.70;7.30;;;;;;;28.78;50.88;101610.66;5014691;28;20293;-43
2022/07/31 06:07:31;;;;;;;8.90;8.17;;;;;;;28.35;52.27;101607.09;5014963;28;20213;-43
2022/07/31 06:10:00;;;;;;;7.90;7.10;;;;;;;27.79;53.31;101601.44;5014342;28;20240;-45
2022/07/31 06:12:29;;;;;;;7.63;6.77;;;;;;;27.05;50.28;101594.44;5014608;28;20439;-45
2022/07/31 06:14:56;;;;;;;5.73;5.43;;;;;;;26.41;54.09;101602.75;5014723;28;20436;-50
2022/07/31 06:17:24;;;;;;;6.23;5.90;;;;;;;26.57;53.36;101609.78;5014480;28;20933;-46
2022/07/31 06:20:11;;;;;;;5.23;4.73;;;;;;;27.95;53.91;101605.66;5014708;28;20502;-48
2022/07/31 06:22:39;;;;;;;5.00;4.60;;;;;;;29.04;51.68;101593.50;5014442;28;20437;-48
2022/07/31 06:25:08;;;;;;;4.37;4.10;;;;;;;29.83;48.80;101594.34;5014577;28;20440;-48
2022/07/31 06:27:40;;;;;;;5.03;4.63;;;;;;;30.57;47.11;101595.00;5014019;28;20436;-48
2022/07/31 06:30:10;;;;;;;8.43;4.07;;;;;;;31.06;46.65;101597.69;5013611;28;20201;-48
2022/07/31 06:32:37;;;;;;;4.80;4.50;;;;;;;31.44;39.66;101594.56;5014267;28;20198;-44
2022/07/31 06:35:06;;;;;;;4.27;3.87;;;;;;;31.69;42.42;101591.16;5014387;28;20292;-48
2022/07/31 06:37:34;;;;;;;4.57;4.28;;;;;;;31.24;42.87;101599.44;5014094;28;20233;-45
2022/07/31 06:40:02;;;;;;;3.90;3.63;;;;;;;31.83;41.40;101600.13;4994647;28;20222;-44
2022/07/31 06:42:30;;;;;;;4.60;4.20;;;;;;;32.54;38.66;101601.63;4994284;28;20200;-48
2022/07/31 06:44:59;;;;;;;6.55;3.80;;;;;;;33.10;39.26;101592.41;4992122;28;20677;-48
2022/07/31 06:47:26;;;;;;;3.03;2.83;;;;;;;33.61;39.75;101583.19;4993448;28;20699;-45
2022/07/31 06:49:55;;;;;;;2.70;2.60;;;;;;;33.25;39.89;101580.84;4993371;28;20229;-44
2022/07/31 06:52:22;;;;;;;3.28;2.40;;;;;;;32.37;38.84;101598.03;4993113;28;20207;-45
2022/07/31 06:54:50;;;;;;;5.28;2.60;;;;;;;31.70;38.96;101592.75;4994109;28;20198;-43
2022/07/31 06:57:18;;;;;;;3.20;2.90;;;;;;;30.81;38.86;101579.03;4994325;28;20233;-46
2022/07/31 06:59:45;;;;;;;3.10;2.73;;;;;;;30.04;39.60;101581.81;4993799;28;20229;-46
2022/07/31 07:02:14;;;;;;;2.90;2.70;;;;;;;29.35;40.73;101580.09;4994186;28;20205;-43
2022/07/31 07:04:42;;;;;;;3.40;3.13;;;;;;;28.39;40.09;101575.22;4994275;28;20206;-43
2022/07/31 07:07:30;;;;;;;3.30;3.00;;;;;;;27.81;43.33;101572.63;4994165;28;20218;-43
2022/07/31 07:09:58;;;;;;;2.93;2.83;;;;;;;27.75;44.07;101567.50;4993607;28;20237;-48
2022/07/31 07:12:26;;;;;;;3.07;2.70;;;;;;;27.95;44.80;101565.34;4994072;28;20433;-46
2022/07/31 07:14:55;;;;;;;2.60;2.40;;;;;;;27.90;44.29;101575.53;4994048;28;20437;-45
2022/07/31 07:17:23;;;;;;;3.03;2.73;;;;;;;28.29;44.84;101565.22;4993894;28;20484;-48
2022/07/31 07:19:56;;;;;;;2.10;2.00;;;;;;;28.42;43.64;101569.16;4992135;28;20990;-45
2022/07/31 07:22:23;;;;;;;5.00;2.50;;;;;;;28.48;42.46;101577.03;4993792;28;20460;-46
2022/07/31 07:24:59;;;;;;;3.23;2.63;;;;;;;29.17;40.91;101561.69;4993979;28;20445;-48
2022/07/31 07:27:26;;;;;;;2.40;2.20;;;;;;;29.83;41.42;101566.84;4993753;28;20449;-50
2022/07/31 07:29:54;;;;;;;3.00;2.80;;;;;;;30.71;38.82;101565.47;4993272;28;20472;-46
2022/07/31 07:32:21;;;;;;;3.20;2.60;;;;;;;30.91;40.00;101564.19;4993545;28;20661;-44
2022/07/31 07:34:50;;;;;;;2.70;2.50;;;;;;;30.71;37.66;101568.25;4993219;28;20194;-45
2022/07/31 07:37:27;;;;;;;2.90;2.70;;;;;;;30.66;38.33;101566.44;4988676;28;20221;-47
2022/07/31 07:39:55;;;;;;;2.53;2.40;;;;;;;30.61;37.03;101569.31;4992585;28;20252;-51
2022/07/31 07:42:22;;;;;;;3.27;3.07;;;;;;;30.47;37.87;101567.69;4992496;28;20204;-43
2022/07/31 07:44:50;;;;;;;4.80;2.93;;;;;;;30.55;37.73;101567.81;4993313;28;20205;-51
2022/07/31 07:47:17;;;;;;;3.33;3.10;;;;;;;30.55;38.40;101570.56;4992933;28;20226;-45
2022/07/31 07:49:45;;;;;;;3.30;3.10;;;;;;;30.40;38.40;101559.06;4992367;28;20333;-49
2022/07/31 07:52:14;;;;;;;4.30;3.60;;;;;;;29.66;38.18;101558.34;4995333;28;20330;-47
2022/07/31 07:54:43;;;;;;;3.57;3.10;;;;;;;29.49;38.57;101558.94;4993163;28;20198;-45
2022/07/31 07:57:14;;;;;;;2.90;2.70;;;;;;;29.43;38.49;101551.09;4992798;28;20280;-45
2022/07/31 07:59:42;;;;;;;4.37;3.17;;;;;;;29.58;38.98;101545.31;4992706;28;20234;-45
2022/07/31 08:02:11;;;;;;;3.30;3.00;;;;;;;29.80;38.58;101545.44;4992908;28;20580;-49
2022/07/31 08:04:38;;;;;;;4.13;3.73;;;;;;;29.92;39.40;101544.94;4992433;28;20301;-44
2022/07/31 08:07:06;;;;;;;4.10;3.23;;;;;;;29.92;38.00;101548.53;4992632;28;20313;-45
2022/07/31 08:09:36;;;;;;;3.80;3.37;;;;;;;29.36;37.86;101543.25;4991219;28;20226;-46
2022/07/31 08:12:05;;;;;;;3.20;3.00;;;;;;;28.93;39.62;101550.03;4992961;28;20221;-47
2022/07/31 08:14:33;;;;;;;4.10;3.03;;;;;;;28.76;39.43;101544.28;4993001;28;20234;-45
2022/07/31 08:17:01;;;;;;;3.43;3.03;;;;;;;28.63;39.52;101551.28;4992872;28;20481;-45
2022/07/31 08:19:30;;;;;;;3.10;2.80;;;;;;;28.70;40.00;101550.94;4992651;28;20469;-47
2022/07/31 08:21:57;;;;;;;3.47;3.23;;;;;;;28.02;40.18;101548.53;4992894;28;20800;-44
2022/07/31 08:24:27;;;;;;;3.57;2.90;;;;;;;27.89;39.97;101558.31;4992753;28;20872;-45
2022/07/31 08:29:41;;;;;;;3.30;3.10;;;;;;;27.90;40.19;101556.34;4992598;28;20461;-45
2022/07/31 08:32:09;;;;;;;3.10;2.70;;;;;;;27.94;40.79;101555.50;4992634;28;20444;-45
2022/07/31 08:34:37;;;;;;;3.20;3.00;;;;;;;27.82;40.36;101549.59;4992622;28;20440;-50
2022/07/31 08:37:08;;;;;;;3.40;3.10;;;;;;;27.43;41.97;101562.63;4992317;28;20473;-48
2022/07/31 08:39:56;;;;;;;2.90;2.70;;;;;;;27.42;41.75;101561.00;4992106;28;20993;-45
2022/07/31 08:42:25;;;;;;;3.03;2.80;;;;;;;27.10;42.18;101557.97;4992464;28;20434;-46
2022/07/31 08:44:53;;;;;;;3.10;2.90;;;;;;;27.15;41.68;101549.75;4992510;28;20973;-46
2022/07/31 08:47:24;;;;;;;5.00;3.17;;;;;;;27.07;42.84;101542.13;4990994;28;20828;-47
2022/07/31 08:49:51;;;;;;;5.40;3.83;;;;;;;26.77;42.48;101541.25;4992035;28;20484;-47
2022/07/31 08:52:22;;;;;;;3.50;3.30;;;;;;;26.85;43.04;101539.88;4991941;28;20459;-44
2022/07/31 08:54:54;;;;;;;3.77;3.47;;;;;;;26.52;44.48;101548.81;4992524;28;20540;-46
2022/07/31 08:57:21;;;;;;;3.30;3.10;;;;;;;26.56;44.71;101544.41;4992293;28;20855;-46
2022/07/31 08:59:51;;;;;;;4.40;3.97;;;;;;;26.57;43.97;101548.78;4991977;28;20462;-46
2022/07/31 09:02:19;;;;;;;3.60;3.30;;;;;;;26.80;44.24;101537.13;4991494;28;20440;-51
2022/07/31 09:04:48;;;;;;;5.97;3.60;;;;;;;27.18;43.88;101538.22;4992361;28;20438;-44
2022/07/31 09:07:19;;;;;;;3.80;3.50;;;;;;;27.57;43.98;101535.38;4992531;28;20504;-45
2022/07/31 09:09:47;;;;;;;3.70;3.40;;;;;;;27.99;43.10;101535.41;4991811;28;20469;-44
2022/07/31 09:12:27;;;;;;;3.07;2.83;;;;;;;28.32;42.08;101534.44;4992037;28;20495;-48
2022/07/31 09:15:02;;;;;;;2.93;2.73;;;;;;;28.29;42.30;101528.72;4992463;28;20484;-44
2022/07/31 09:17:34;;;;;;;3.00;2.80;;;;;;;28.32;42.37;101536.38;4991715;28;20481;-47
2022/07/31 09:20:03;;;;;;;2.73;2.47;;;;;;;28.61;41.53;101528.00;4991852;28;20443;-50
2022/07/31 09:22:31;;;;;;;3.87;2.93;;;;;;;28.49;41.71;101528.47;4992182;28;20449;-45
2022/07/31 09:25:11;;;;;;;5.00;3.43;;;;;;;28.58;41.45;101527.47;4992237;28;20468;-46
2022/07/31 09:27:39;;;;;;;4.23;3.00;;;;;;;28.64;42.39;101531.00;4997089;28;20432;-47
2022/07/31 09:30:09;;;;;;;4.57;3.20;;;;;;;28.68;41.36;101528.47;4992535;28;20440;-47
2022/07/31 09:32:37;;;;;;;2.90;2.70;;;;;;;28.53;41.03;101533.03;4991419;28;20430;-45
2022/07/31 09:35:10;;;;;;;7.03;2.63;;;;;;;28.71;41.31;101527.84;4991898;28;20815;-45
2022/07/31 09:37:39;;;;;;;3.60;2.87;;;;;;;28.95;39.35;101523.06;4991077;28;20867;-49
2022/07/31 09:40:08;;;;;;;3.13;3.03;;;;;;;29.13;39.94;101518.63;4992127;28;20843;-46
2022/07/31 09:42:37;;;;;;;3.30;3.00;;;;;;;29.24;40.46;101522.88;4991637;28;20440;-45
2022/07/31 09:45:21;;;;;;;3.50;3.27;;;;;;;29.31;39.47;101513.13;4991271;28;20437;-47
2022/07/31 09:48:03;;;;;;;3.80;2.90;;;;;;;29.44;38.94;101514.25;4991079;28;20431;-48
2022/07/31 09:50:32;;;;;;;3.60;3.23;;;;;;;29.40;40.00;101518.72;4991984;28;20426;-46
2022/07/31 09:53:01;;;;;;;3.43;2.93;;;;;;;29.46;39.93;101517.50;4991479;28;20451;-44
2022/07/31 09:55:29;;;;;;;3.00;2.80;;;;;;;29.45;38.54;101516.69;4991607;28;20425;-45
2022/07/31 09:57:58;;;;;;;3.50;3.20;;;;;;;29.24;38.87;101518.19;4991104;28;20465;-48
2022/07/31 10:00:27;;;;;;;6.07;3.67;;;;;;;29.44;39.17;101514.25;4990917;28;20927;-44
2022/07/31 10:02:57;;;;;;;3.27;3.07;;;;;;;29.44;39.51;101504.09;4991655;28;20773;-47
2022/07/31 10:05:26;;;;;;;3.40;3.13;;;;;;;29.50;38.47;101502.88;4994060;28;20516;-45
2022/07/31 10:07:56;;;;;;;4.80;3.77;;;;;;;29.32;37.86;101511.19;4994974;28;20433;-44
2022/07/31 10:10:24;;;;;;;4.27;3.97;;;;;;;29.49;38.69;101497.66;4995367;28;20438;-48
2022/07/31 10:12:55;;;;;;;4.10;3.00;;;;;;;29.38;39.82;101501.75;4994795;28;20440;-47
2022/07/31 10:15:25;;;;;;;3.97;3.57;;;;;;;29.25;39.23;101502.53;4994709;28;20915;-47
2022/07/31 10:17:55;;;;;;;3.30;3.07;;;;;;;29.18;38.04;101500.13;4995013;28;20429;-47
2022/07/31 10:20:24;;;;;;;2.80;2.60;;;;;;;29.20;38.72;101497.91;4995262;28;20433;-47
2022/07/31 10:22:55;;;;;;;5.70;2.80;;;;;;;29.27;38.73;101494.81;4994870;28;20440;-45
2022/07/31 10:25:26;;;;;;;3.67;2.90;;;;;;;29.20;37.81;101497.09;4994860;28;20430;-50
2022/07/31 10:27:55;;;;;;;4.27;3.00;;;;;;;29.43;37.71;101490.63;4994668;28;20456;-45
2022/07/31 10:30:24;;;;;;;6.13;4.03;;;;;;;29.61;37.55;101489.72;4994429;28;20943;-49
2022/07/31 10:32:57;;;;;;;3.40;3.20;;;;;;;29.91;38.10;101491.88;4994773;28;20875;-47
2022/07/31 10:35:25;;;;;;;4.67;3.40;;;;;;;29.85;37.26;101489.53;4994626;28;20436;-45
2022/07/31 10:37:58;;;;;;;3.63;3.33;;;;;;;29.98;37.13;101485.97;4994047;28;20430;-46
2022/07/31 10:40:33;;;;;;;4.20;3.97;;;;;;;30.21;36.07;101484.06;4994889;28;20433;-48
2022/07/31 10:43:17;;;;;;;2.90;2.70;;;;;;;30.25;35.57;101483.16;4994111;28;20496;-44
2022/07/31 10:45:49;;;;;;;3.33;3.10;;;;;;;30.57;36.76;101469.19;4994409;28;20468;-47
2022/07/31 10:48:19;;;;;;;5.23;3.23;;;;;;;30.83;36.44;101469.34;4994161;28;20466;-50
2022/07/31 10:50:47;;;;;;;4.23;3.80;;;;;;;31.02;36.38;101464.50;4994726;28;20795;-49
2022/07/31 10:53:16;;;;;;;2.97;2.73;;;;;;;31.30;34.85;101456.03;4994490;28;20437;-44
2022/07/31 10:55:44;;;;;;;6.30;3.87;;;;;;;31.11;34.79;101459.03;4994415;28;20234;-48
2022/07/31 10:58:14;;;;;;;4.67;4.37;;;;;;;31.15;35.95;101460.03;4998420;28;20226;-46
2022/07/31 11:00:42;;;;;;;3.47;3.17;;;;;;;31.02;35.57;101456.22;5013821;28;20439;-46
2022/07/31 11:03:14;;;;;;;4.00;3.70;;;;;;;30.85;35.28;101450.59;5013762;28;20444;-53
2022/07/31 11:05:55;;;;;;;4.40;4.10;;;;;;;30.82;35.97;101447.66;5013725;28;20222;-45
2022/07/31 11:08:40;;;;;;;3.93;3.73;;;;;;;30.62;35.55;101446.22;5013432;28;20229;-44
2022/07/31 11:11:08;;;;;;;4.00;3.60;;;;;;;30.80;36.29;101441.63;5013636;28;20421;-47
2022/07/31 11:13:45;;;;;;;3.63;3.33;;;;;;;30.50;35.44;101435.78;5013327;28;20563;-46
2022/07/31 11:16:13;;;;;;;3.33;3.13;;;;;;;30.29;35.17;101436.53;5013504;28;20449;-47
2022/07/31 11:18:41;;;;;;;12.40;3.80;;;;;;;30.22;35.10;101430.69;5013175;28;20496;-51
2022/07/31 11:21:10;;;;;;;2.80;2.70;;;;;;;30.21;36.35;101429.88;5013479;28;21206;-44
2022/07/31 11:23:58;;;;;;;3.63;3.33;;;;;;;30.15;36.50;101425.59;5013166;28;20962;-44
2022/07/31 11:26:32;;;;;;;6.87;4.30;;;;;;;30.18;35.95;101414.78;5012967;28;20448;-47
2022/07/31 11:29:08;;;;;;;3.93;3.70;;;;;;;30.07;37.00;101418.09;5012963;28;20543;-48
2022/07/31 11:31:59;;;;;;;3.43;3.23;;;;;;;29.84;35.97;101410.94;5013846;28;20202;-45